Terminal Aerodrome Forecast
Issued by NWS Duluth, MN

Home | Current Version | Previous Version | Text Only | Print | Product List | Glossary On
Versions: 1 2 3 4 5 6 7 8 9 10 11 12 13 14 15 16 17 18
000
FTUS43 KDLH 231740
TAFINL
TAF
KINL 231740Z 2318/2418 23008KT P6SM VCTS SCT040CB BKN080
      TEMPO 2319/2323 5SM -TSRA SCT022 BKN035CB
     FM232300 25009KT P6SM VCSH BKN050
     FM240300 VRB03KT P6SM SCT050
      TEMPO 2407/2411 5SM BR
     FM241500 17006KT P6SM BKN028=

USA.gov is the U.S. government's official web portal to all federal, state and local government web resources and services.